Time;durP1;ratioP1;P1;durP2;ratioP2;P2;SDS_P1;SDS_P2;PMS_P1;PMS_P2;Temp;Humidity;BMP_temperature;BMP_pressure;BME280_temperature;BME280_humidity;BME280_pressure;Samples;Min_cycle;Max_cycle;Signal;HPM_P1;HPM_P2
2021/10/06 00:01:32;;;;;;;17.30;10.80;;;;;;;12.42;77.78;98984.07;4407192;77;20997;-84
2021/10/06 00:07:33;;;;;;;19.40;10.80;;;;;;;12.26;77.82;98994.02;4396103;78;21049;-84
2021/10/06 00:13:35;;;;;;;23.22;11.18;;;;;;;12.22;78.01;98987.73;4396148;78;21069;-84
2021/10/06 00:19:36;;;;;;;16.82;11.15;;;;;;;12.13;78.20;98979.08;4393393;77;21576;-84
2021/10/06 00:25:38;;;;;;;19.10;11.12;;;;;;;12.11;78.46;98983.36;4397073;77;20993;-85
2021/10/06 00:31:39;;;;;;;14.83;10.40;;;;;;;12.08;78.76;98971.20;4394413;77;21006;-84
2021/10/06 00:37:40;;;;;;;16.80;11.25;;;;;;;11.96;78.50;98977.61;4413128;77;21026;-84
2021/10/06 00:43:41;;;;;;;13.65;10.50;;;;;;;11.80;78.81;98987.52;4421356;78;21090;-84
2021/10/06 00:49:43;;;;;;;18.80;10.88;;;;;;;11.75;79.53;98988.45;4425958;78;20968;-84
2021/10/06 00:55:44;;;;;;;18.32;10.95;;;;;;;11.66;80.23;98982.52;4412883;78;21630;-84
2021/10/06 01:01:45;;;;;;;18.02;10.98;;;;;;;11.63;81.73;98979.17;4424774;79;21519;-84
2021/10/06 01:07:46;;;;;;;17.35;11.38;;;;;;;11.67;81.29;98986.83;4419572;79;21511;-84
2021/10/06 01:13:48;;;;;;;14.65;10.75;;;;;;;11.85;81.21;98965.80;4422773;78;21024;-84
2021/10/06 01:19:50;;;;;;;19.48;11.35;;;;;;;11.86;81.64;98965.98;4416668;79;20991;-84
2021/10/06 01:25:51;;;;;;;13.55;9.73;;;;;;;11.88;81.35;98963.66;4422956;79;21444;-85
2021/10/06 01:31:53;;;;;;;18.23;11.03;;;;;;;11.90;82.23;98951.72;4420409;78;21542;-85
2021/10/06 01:37:55;;;;;;;14.45;9.80;;;;;;;12.01;82.38;98955.30;4425441;77;21061;-84
2021/10/06 01:43:56;;;;;;;17.65;10.82;;;;;;;12.06;82.44;98968.63;4435021;77;21031;-84
2021/10/06 01:49:57;;;;;;;15.18;9.98;;;;;;;12.02;82.49;98970.59;4446788;77;21028;-84
2021/10/06 01:55:58;;;;;;;17.87;11.20;;;;;;;12.07;83.19;98990.80;4436544;77;21030;-85
2021/10/06 02:01:59;;;;;;;14.53;10.00;;;;;;;12.12;82.71;98999.44;4452090;77;21058;-84
2021/10/06 02:08:03;;;;;;;16.20;10.32;;;;;;;12.06;83.33;98998.81;4453357;77;21486;-83
2021/10/06 02:14:05;;;;;;;15.13;10.40;;;;;;;12.16;83.60;98990.66;4417433;77;21042;-84
2021/10/06 02:20:08;;;;;;;14.93;9.90;;;;;;;12.20;83.72;98986.56;4447052;77;21533;-83
2021/10/06 02:26:09;;;;;;;18.92;10.43;;;;;;;12.14;83.71;98974.36;4446699;77;21011;-85
2021/10/06 02:32:10;;;;;;;20.40;10.28;;;;;;;12.10;84.17;98971.62;4430149;78;21013;-83
2021/10/06 02:38:12;;;;;;;20.90;10.95;;;;;;;12.06;84.11;98961.20;4384145;77;21000;-84
2021/10/06 02:44:14;;;;;;;16.52;10.88;;;;;;;12.04;84.29;98965.51;4311398;79;21050;-83
2021/10/06 02:50:20;;;;;;;14.40;10.82;;;;;;;12.03;84.28;98946.88;4322034;79;21027;-85
2021/10/06 02:56:22;;;;;;;15.95;10.58;;;;;;;12.05;84.86;98957.47;4351525;79;21506;-84
2021/10/06 03:02:23;;;;;;;16.37;11.60;;;;;;;12.08;85.17;98960.23;4321901;79;21058;-85
2021/10/06 03:08:24;;;;;;;16.17;10.58;;;;;;;12.13;85.46;98959.07;4311564;80;21525;-84
2021/10/06 03:14:26;;;;;;;13.53;9.58;;;;;;;12.14;85.60;98940.84;4247158;81;21079;-84
2021/10/06 03:20:27;;;;;;;14.38;10.20;;;;;;;12.19;86.51;98967.92;4253171;82;21045;-86
2021/10/06 03:26:28;;;;;;;15.58;10.93;;;;;;;12.29;85.93;98993.84;4327130;80;21020;-84
2021/10/06 03:32:30;;;;;;;17.80;10.15;;;;;;;12.29;86.62;98983.63;4311994;79;21060;-86
2021/10/06 03:38:31;;;;;;;21.77;13.62;;;;;;;12.30;86.80;98995.41;4280146;80;21035;-85
2021/10/06 03:44:32;;;;;;;20.45;12.23;;;;;;;12.26;86.87;98994.02;4234026;81;21095;-84
2021/10/06 03:50:34;;;;;;;24.00;15.18;;;;;;;12.27;87.81;98998.92;4246560;81;21032;-84
2021/10/06 03:56:35;;;;;;;19.23;13.13;;;;;;;12.31;87.57;99006.58;4255786;81;21067;-85
2021/10/06 04:02:37;;;;;;;21.55;14.25;;;;;;;12.32;88.39;99021.89;4245458;81;21023;-84
2021/10/06 04:08:39;;;;;;;19.60;12.20;;;;;;;12.35;88.11;99028.78;4232588;81;21563;-85
2021/10/06 04:14:40;;;;;;;18.12;13.68;;;;;;;12.39;88.77;99031.52;4226720;81;21540;-84
2021/10/06 04:20:41;;;;;;;20.55;14.05;;;;;;;12.45;88.14;99041.75;4232345;81;21544;-84
2021/10/06 04:26:43;;;;;;;24.45;14.15;;;;;;;12.32;88.80;99047.36;4239132;81;21072;-83
2021/10/06 04:32:44;;;;;;;21.75;16.02;;;;;;;12.24;89.12;99055.97;4237371;81;21091;-84
2021/10/06 04:38:46;;;;;;;24.25;15.35;;;;;;;12.23;89.59;99062.63;4263426;80;21023;-85
2021/10/06 04:44:49;;;;;;;21.77;14.93;;;;;;;12.22;89.84;99050.86;4296795;80;21020;-84
2021/10/06 04:50:50;;;;;;;20.97;14.47;;;;;;;12.17;89.73;99065.52;4328808;78;21481;-84
2021/10/06 04:56:52;;;;;;;19.55;14.93;;;;;;;12.12;90.22;99062.55;4312967;80;21606;-85
2021/10/06 05:02:53;;;;;;;24.43;15.45;;;;;;;12.12;90.39;99065.91;4294007;80;21114;-84
2021/10/06 05:08:54;;;;;;;34.20;16.52;;;;;;;12.13;90.65;99068.26;4310968;80;21579;-83
2021/10/06 05:14:55;;;;;;;24.12;15.38;;;;;;;12.11;90.58;99079.40;4324131;79;21618;-84
2021/10/06 05:20:57;;;;;;;21.75;14.58;;;;;;;12.04;91.08;99091.11;4302766;80;21438;-83
2021/10/06 05:26:59;;;;;;;23.12;15.98;;;;;;;12.05;91.60;99085.84;4311998;80;20988;-83
2021/10/06 05:33:00;;;;;;;20.02;14.30;;;;;;;12.18;91.50;99095.31;4301373;80;21020;-83
2021/10/06 05:39:03;;;;;;;23.20;15.48;;;;;;;12.07;92.22;99104.67;4301413;80;21058;-82
2021/10/06 05:45:06;;;;;;;20.37;14.07;;;;;;;12.08;92.11;99110.34;4296634;79;21030;-83
2021/10/06 05:51:07;;;;;;;21.75;15.00;;;;;;;12.22;92.84;99113.98;4289409;79;21048;-82
2021/10/06 05:57:09;;;;;;;22.37;14.70;;;;;;;12.06;92.38;99126.39;4275093;79;21041;-82
2021/10/06 06:03:10;;;;;;;25.27;16.20;;;;;;;12.12;92.88;99127.64;4278758;79;20997;-81
2021/10/06 06:09:13;;;;;;;27.60;17.67;;;;;;;12.13;92.95;99134.69;4299637;79;21070;-82
2021/10/06 06:15:14;;;;;;;22.80;17.17;;;;;;;12.08;92.49;99124.87;4286502;79;21772;-83
2021/10/06 06:21:15;;;;;;;27.15;17.92;;;;;;;12.00;93.62;99138.90;4294797;79;21585;-82
2021/10/06 06:27:17;;;;;;;24.92;17.42;;;;;;;11.97;94.30;99161.61;4402862;78;21053;-83
2021/10/06 06:33:18;;;;;;;26.93;18.77;;;;;;;12.05;94.30;99161.88;4423089;77;21070;-82
2021/10/06 06:39:19;;;;;;;29.67;19.52;;;;;;;12.05;93.80;99149.53;4450956;77;21065;-82
2021/10/06 06:45:21;;;;;;;31.52;21.05;;;;;;;12.08;94.27;99146.81;4479715;77;21645;-81
2021/10/06 06:51:22;;;;;;;26.20;18.70;;;;;;;12.18;94.60;99156.30;4462279;77;21003;-82
2021/10/06 06:57:25;;;;;;;25.95;17.57;;;;;;;12.30;94.56;99166.96;4483104;77;21059;-81
2021/10/06 07:03:26;;;;;;;24.75;16.40;;;;;;;12.38;94.83;99185.06;4462698;77;21020;-81
2021/10/06 07:09:29;;;;;;;23.80;15.70;;;;;;;12.37;94.63;99198.59;4461842;77;22112;-84
2021/10/06 07:15:31;;;;;;;26.40;16.48;;;;;;;12.40;94.89;99214.30;4472714;77;21043;-82
2021/10/06 07:21:33;;;;;;;25.68;16.95;;;;;;;12.55;94.99;99201.66;4470737;77;21042;-82
2021/10/06 07:27:34;;;;;;;26.48;15.55;;;;;;;12.57;94.86;99207.53;4461817;77;21034;-82
2021/10/06 07:33:35;;;;;;;28.25;16.02;;;;;;;12.53;95.04;99214.97;4461222;77;21545;-82
2021/10/06 07:39:36;;;;;;;20.68;15.08;;;;;;;12.56;95.35;99221.07;4460613;77;21026;-84
2021/10/06 07:45:38;;;;;;;22.87;14.68;;;;;;;12.64;95.23;99230.94;4471133;77;21537;-82
2021/10/06 07:51:39;;;;;;;23.22;15.93;;;;;;;12.71;94.99;99226.66;4470071;77;21018;-82
2021/10/06 07:57:40;;;;;;;23.85;14.20;;;;;;;12.81;94.86;99234.95;4483245;77;21560;-82
2021/10/06 08:03:43;;;;;;;20.02;14.30;;;;;;;12.82;94.98;99237.13;4463238;77;21011;-82
2021/10/06 08:09:44;;;;;;;21.40;15.30;;;;;;;12.90;95.04;99245.61;4468452;77;21480;-83
2021/10/06 08:15:45;;;;;;;24.75;17.00;;;;;;;12.82;95.31;99239.30;4467121;77;21959;-82
2021/10/06 08:21:48;;;;;;;25.52;17.90;;;;;;;12.84;95.57;99245.77;4478202;77;21050;-84
2021/10/06 08:27:49;;;;;;;21.87;16.70;;;;;;;12.90;95.71;99250.53;4463926;77;21530;-83
2021/10/06 08:33:51;;;;;;;26.55;17.92;;;;;;;12.91;95.62;99237.56;4468604;77;21032;-82
2021/10/06 08:39:52;;;;;;;26.55;16.85;;;;;;;12.91;96.22;99243.85;4472972;77;21226;-84
2021/10/06 08:45:53;;;;;;;19.40;15.55;;;;;;;12.95;96.25;99262.50;4453350;77;21036;-82
2021/10/06 08:51:55;;;;;;;22.82;15.70;;;;;;;13.01;96.26;99257.48;4478814;77;21463;-83
2021/10/06 08:58:04;;;;;;;20.92;15.55;;;;;;;13.07;96.48;99256.73;4456738;77;21570;-82
2021/10/06 09:04:06;;;;;;;24.07;15.78;;;;;;;13.17;96.28;99257.36;4446323;77;21105;-81
2021/10/06 09:10:15;;;;;;;26.15;16.85;;;;;;;13.23;96.30;99259.17;4440994;77;21042;-84
2021/10/06 09:16:17;;;;;;;25.40;17.98;;;;;;;13.25;96.59;99258.97;4453921;77;21580;-82
2021/10/06 09:22:22;;;;;;;28.02;20.30;;;;;;;13.22;96.30;99261.12;4464027;77;20996;-84
2021/10/06 09:28:36;;;;;;;32.45;19.85;;;;;;;13.22;96.89;99261.70;4463283;77;21012;-81
2021/10/06 09:34:37;;;;;;;30.60;20.20;;;;;;;13.24;97.19;99256.03;4458930;77;21159;-82
2021/10/06 09:40:39;;;;;;;28.00;17.45;;;;;;;13.31;97.42;99268.42;4465318;77;21085;-81
2021/10/06 09:46:56;;;;;;;27.22;17.90;;;;;;;13.45;97.71;99269.09;4464649;77;21024;-82
2021/10/06 09:53:08;;;;;;;22.32;16.25;;;;;;;13.52;97.79;99265.77;4460612;77;20983;-81
2021/10/06 09:59:13;;;;;;;28.05;16.62;;;;;;;13.63;97.62;99267.17;4454995;77;21480;-82
2021/10/06 10:05:16;;;;;;;20.15;15.38;;;;;;;13.70;97.73;99271.34;4458688;77;20974;-81
2021/10/06 10:11:18;;;;;;;23.15;16.23;;;;;;;13.73;97.83;99278.81;4471885;77;21024;-81
2021/10/06 10:17:20;;;;;;;26.23;18.35;;;;;;;13.77;97.93;99268.01;4463148;77;22084;-82
2021/10/06 10:23:26;;;;;;;22.95;17.55;;;;;;;13.87;98.25;99268.63;4460819;77;21097;-82
2021/10/06 10:30:03;;;;;;;29.10;17.93;;;;;;;13.98;98.58;99272.16;4440978;77;21066;-81
2021/10/06 10:36:05;;;;;;;26.77;17.00;;;;;;;14.05;98.36;99283.20;4457088;77;21664;-82
2021/10/06 10:42:06;;;;;;;22.13;17.10;;;;;;;14.13;98.49;99277.11;4448824;77;21937;-82
2021/10/06 10:48:11;;;;;;;24.98;16.70;;;;;;;14.22;98.20;99278.13;4457122;77;21052;-82
2021/10/06 10:54:35;;;;;;;24.35;16.12;;;;;;;14.26;98.28;99279.72;4456486;77;21023;-82
2021/10/06 11:00:38;;;;;;;22.95;15.38;;;;;;;14.30;98.37;99277.75;4456012;77;21039;-82
2021/10/06 11:06:43;;;;;;;26.52;17.62;;;;;;;14.35;98.45;99284.25;4470943;77;21484;-82
2021/10/06 11:13:03;;;;;;;27.17;16.57;;;;;;;14.39;98.28;99291.14;4465923;77;21461;-82
2021/10/06 11:19:00;;;;;;;24.10;17.15;;;;;;;14.35;98.27;99287.00;4455235;77;21077;-84
2021/10/06 11:25:05;;;;;;;23.35;16.77;;;;;;;14.31;98.24;99290.94;4462800;77;21043;-82
2021/10/06 11:31:09;;;;;;;24.20;17.82;;;;;;;14.38;98.63;99284.84;4472580;77;20998;-82
2021/10/06 11:37:23;;;;;;;22.95;17.65;;;;;;;14.41;98.35;99274.41;4476813;77;21475;-82
2021/10/06 11:43:24;;;;;;;27.58;16.80;;;;;;;14.42;98.53;99280.14;4463273;77;21051;-83
2021/10/06 11:49:32;;;;;;;25.82;17.48;;;;;;;14.44;98.60;99275.00;4454500;77;21060;-82
2021/10/06 11:55:33;;;;;;;27.80;17.60;;;;;;;14.46;98.76;99283.66;4469726;77;21105;-82
2021/10/06 12:01:36;;;;;;;30.45;17.75;;;;;;;14.43;98.40;99283.66;4461506;77;22094;-83
2021/10/06 12:07:38;;;;;;;22.48;16.80;;;;;;;14.32;98.52;99275.98;4491246;77;21646;-84
2021/10/06 12:13:41;;;;;;;22.05;17.12;;;;;;;14.26;98.68;99267.34;4470194;77;21547;-83
2021/10/06 12:20:13;;;;;;;26.82;17.02;;;;;;;14.25;98.85;99273.23;4446329;77;21035;-82
2021/10/06 12:26:15;;;;;;;26.55;18.40;;;;;;;14.23;98.96;99276.34;4461342;77;21428;-84
2021/10/06 12:32:17;;;;;;;27.95;18.27;;;;;;;14.20;99.07;99275.77;4462667;77;21512;-83
2021/10/06 12:38:19;;;;;;;22.48;16.80;;;;;;;14.17;99.18;99278.69;4475622;77;21100;-83
2021/10/06 12:44:42;;;;;;;19.55;13.45;;;;;;;14.14;99.37;99278.09;4461536;77;21002;-83
2021/10/06 12:50:49;;;;;;;16.67;13.03;;;;;;;14.08;98.68;99276.91;4475847;77;20982;-83
2021/10/06 12:57:03;;;;;;;18.15;13.80;;;;;;;14.01;98.43;99286.55;4472100;77;21097;-83
2021/10/06 13:03:06;;;;;;;27.07;17.12;;;;;;;13.92;98.47;99294.38;4462602;77;21007;-83
2021/10/06 13:09:07;;;;;;;26.00;17.80;;;;;;;13.83;98.66;99300.05;4473234;77;20967;-83
2021/10/06 13:15:09;;;;;;;29.07;18.60;;;;;;;13.78;98.87;99301.21;4462231;77;20998;-82
2021/10/06 13:21:11;;;;;;;22.25;17.45;;;;;;;13.72;99.07;99297.27;4476292;77;20991;-83
2021/10/06 13:27:12;;;;;;;22.37;16.73;;;;;;;13.73;99.25;99299.44;4470078;77;21126;-83
2021/10/06 13:33:13;;;;;;;25.77;17.32;;;;;;;13.68;99.13;99306.11;4453438;77;22042;-84
2021/10/06 13:39:15;;;;;;;31.05;18.62;;;;;;;13.65;99.12;99309.64;4452736;77;21165;-83
2021/10/06 13:45:17;;;;;;;29.77;20.35;;;;;;;13.63;99.30;99318.86;4395853;77;21002;-84
2021/10/06 13:51:19;;;;;;;22.77;16.75;;;;;;;13.61;99.32;99321.78;4417230;78;21066;-83
2021/10/06 13:57:20;;;;;;;22.22;16.50;;;;;;;13.59;99.35;99322.16;4414687;78;21055;-83
2021/10/06 14:03:21;;;;;;;26.15;16.90;;;;;;;13.56;99.41;99322.94;4433427;78;21547;-84
2021/10/06 14:09:23;;;;;;;22.82;18.15;;;;;;;13.58;99.66;99335.73;4408365;78;21988;-82
2021/10/06 14:15:24;;;;;;;31.12;19.50;;;;;;;13.57;99.50;99334.73;4414898;78;21538;-83
2021/10/06 14:21:25;;;;;;;23.77;17.57;;;;;;;13.53;99.55;99339.45;4424801;77;20979;-83
2021/10/06 14:27:27;;;;;;;21.33;16.60;;;;;;;13.48;99.71;99341.19;4345481;79;21072;-83
2021/10/06 14:33:29;;;;;;;24.87;17.62;;;;;;;13.47;99.85;99343.72;4282939;81;21590;-83
2021/10/06 14:39:32;;;;;;;26.30;18.10;;;;;;;13.47;99.79;99345.09;4287462;80;21102;-82
2021/10/06 14:45:35;;;;;;;25.52;17.15;;;;;;;13.42;99.80;99357.25;4311574;80;21574;-83
2021/10/06 14:51:37;;;;;;;23.95;17.37;;;;;;;13.35;99.86;99361.92;4313399;80;21081;-82
2021/10/06 14:57:40;;;;;;;26.25;18.55;;;;;;;13.32;100.00;99356.62;4339304;80;21117;-85
2021/10/06 15:03:41;;;;;;;25.70;18.05;;;;;;;13.32;99.93;99359.95;4462435;77;21011;-83
2021/10/06 15:09:44;;;;;;;26.80;18.95;;;;;;;13.25;99.61;99364.05;4469123;77;22271;-83
2021/10/06 15:15:49;;;;;;;33.78;19.17;;;;;;;13.19;99.83;99360.05;4488044;77;21062;-83
2021/10/06 15:21:51;;;;;;;25.55;19.45;;;;;;;13.15;99.97;99360.05;4464789;77;21062;-84
2021/10/06 15:27:52;;;;;;;32.08;20.05;;;;;;;13.11;100.00;99366.09;4473632;77;21093;-84
2021/10/06 15:33:54;;;;;;;26.05;19.32;;;;;;;13.09;100.00;99370.41;4473892;77;21526;-83
2021/10/06 15:39:56;;;;;;;26.07;19.40;;;;;;;13.02;100.00;99363.48;4480057;77;21107;-83
2021/10/06 15:45:57;;;;;;;24.30;18.90;;;;;;;12.98;100.00;99371.69;4456106;77;21056;-84
2021/10/06 15:51:58;;;;;;;26.60;18.75;;;;;;;12.96;100.00;99373.22;4465477;77;21551;-84
2021/10/06 15:58:00;;;;;;;27.45;20.02;;;;;;;12.94;100.00;99370.86;4470175;77;21054;-83
2021/10/06 16:04:03;;;;;;;29.90;21.23;;;;;;;12.91;100.00;99378.48;4466824;77;21583;-83
2021/10/06 16:10:06;;;;;;;32.45;20.08;;;;;;;12.90;100.00;99387.91;4478967;77;21526;-84
2021/10/06 16:16:08;;;;;;;28.05;19.90;;;;;;;12.92;100.00;99394.40;4480906;77;20981;-84
2021/10/06 16:22:10;;;;;;;29.25;19.27;;;;;;;12.90;100.00;99400.84;4410443;79;21029;-84
2021/10/06 16:28:11;;;;;;;25.37;18.02;;;;;;;12.89;100.00;99413.02;4360574;80;21089;-84
2021/10/06 16:34:12;;;;;;;27.48;18.77;;;;;;;12.83;100.00;99411.19;4417187;79;21005;-83
2021/10/06 16:40:14;;;;;;;22.30;17.12;;;;;;;12.83;100.00;99419.44;4435200;78;21103;-84
2021/10/06 16:46:15;;;;;;;28.90;18.55;;;;;;;12.81;100.00;99419.63;4429715;78;21481;-83
2021/10/06 16:52:17;;;;;;;28.30;21.25;;;;;;;12.83;100.00;99426.88;4433253;78;21032;-84
2021/10/06 16:58:19;;;;;;;28.87;19.65;;;;;;;12.80;100.00;99428.44;4423846;78;21588;-83
2021/10/06 17:04:21;;;;;;;34.33;21.65;;;;;;;12.77;100.00;99427.02;4420401;78;21505;-82
2021/10/06 17:10:23;;;;;;;30.50;20.65;;;;;;;12.80;100.00;99439.42;4418837;78;21028;-83
2021/10/06 17:16:25;;;;;;;35.10;21.70;;;;;;;12.83;100.00;99437.29;4416192;78;21087;-83
2021/10/06 17:22:26;;;;;;;27.52;20.62;;;;;;;12.82;100.00;99442.59;4294987;80;20972;-83
2021/10/06 17:28:27;;;;;;;28.35;19.05;;;;;;;12.81;100.00;99444.34;4295840;77;9999912;-83
2021/10/06 17:34:29;;;;;;;28.73;19.73;;;;;;;12.83;100.00;99452.98;4425802;78;21123;-84
2021/10/06 17:40:32;;;;;;;35.08;24.75;;;;;;;12.83;100.00;99455.15;4415649;78;21121;-83
2021/10/06 17:46:34;;;;;;;40.67;26.73;;;;;;;12.87;100.00;99464.80;4415302;78;21047;-82
2021/10/06 17:52:35;;;;;;;39.95;25.50;;;;;;;12.85;100.00;99458.89;4407770;78;21555;-82
2021/10/06 17:58:36;;;;;;;35.73;25.92;;;;;;;12.77;100.00;99455.30;4417167;78;20995;-84
2021/10/06 18:04:38;;;;;;;38.42;25.92;;;;;;;12.77;100.00;99459.41;4412853;78;21006;-83
2021/10/06 18:10:39;;;;;;;38.38;26.93;;;;;;;12.80;100.00;99457.28;4326033;80;20986;-82
2021/10/06 18:16:41;;;;;;;41.53;28.15;;;;;;;12.77;100.00;99461.36;4315961;80;21148;-82
2021/10/06 18:22:42;;;;;;;39.48;27.27;;;;;;;12.75;100.00;99467.23;4419632;78;21059;-82
2021/10/06 18:28:46;;;;;;;39.83;27.93;;;;;;;12.70;100.00;99479.16;4417974;78;21016;-83
2021/10/06 18:34:48;;;;;;;35.88;26.57;;;;;;;12.61;100.00;99483.57;4419364;78;21020;-83
2021/10/06 18:40:49;;;;;;;43.02;26.33;;;;;;;12.67;100.00;99484.03;4425535;78;21063;-82
2021/10/06 18:46:51;;;;;;;36.05;26.80;;;;;;;12.78;100.00;99476.70;4419445;78;21084;-82
2021/10/06 18:52:53;;;;;;;38.13;26.73;;;;;;;12.81;100.00;99474.56;4420232;78;20995;-82
2021/10/06 18:58:58;;;;;;;37.70;26.07;;;;;;;12.74;100.00;99486.27;4295088;78;9999756;-82
2021/10/06 19:04:59;;;;;;;35.90;26.02;;;;;;;12.77;100.00;99499.25;4414104;78;21689;-81
2021/10/06 19:11:01;;;;;;;39.67;27.65;;;;;;;12.81;100.00;99506.92;4420762;78;21051;-81
2021/10/06 19:17:05;;;;;;;36.03;25.45;;;;;;;12.80;100.00;99517.72;4423229;78;21051;-82
2021/10/06 19:23:07;;;;;;;40.80;28.02;;;;;;;12.75;100.00;99516.68;4416919;78;21064;-81
2021/10/06 19:29:08;;;;;;;39.98;28.00;;;;;;;12.74;100.00;99534.34;4416713;78;20968;-81
2021/10/06 19:35:10;;;;;;;35.48;25.05;;;;;;;12.65;100.00;99531.88;4425107;78;21041;-81
2021/10/06 19:41:12;;;;;;;33.85;25.30;;;;;;;12.59;100.00;99536.13;4418264;78;21082;-81
2021/10/06 19:47:13;;;;;;;39.63;25.75;;;;;;;12.62;100.00;99534.61;4416070;78;21014;-80
2021/10/06 19:53:14;;;;;;;37.60;25.75;;;;;;;12.59;100.00;99547.11;4414828;78;21031;-81
2021/10/06 19:59:17;;;;;;;40.48;27.67;;;;;;;12.51;100.00;99545.45;4414771;78;21465;-81
2021/10/06 20:05:19;;;;;;;45.15;28.07;;;;;;;12.49;100.00;99553.86;4316584;80;20973;-81
2021/10/06 20:11:20;;;;;;;38.33;27.73;;;;;;;12.46;100.00;99560.91;4420987;78;21074;-80
2021/10/06 20:17:22;;;;;;;40.17;27.00;;;;;;;12.50;100.00;99556.80;4423809;78;21421;-81
2021/10/06 20:23:24;;;;;;;39.18;28.00;;;;;;;12.47;100.00;99557.55;4415627;78;21083;-82
2021/10/06 20:29:25;;;;;;;50.60;30.90;;;;;;;12.40;100.00;99555.51;4420278;78;21016;-82
2021/10/06 20:35:38;;;;;;;42.70;27.77;;;;;;;12.34;100.00;99555.63;4190237;80;10000037;-81
2021/10/06 20:41:33;;;;;;;37.13;27.13;;;;;;;12.36;100.00;99560.75;4264177;81;21065;-81
2021/10/06 20:47:34;;;;;;;39.27;25.92;;;;;;;12.43;100.00;99549.88;4212759;81;21521;-80
2021/10/06 20:53:35;;;;;;;35.65;24.35;;;;;;;12.41;100.00;99564.55;4201006;81;21048;-83
2021/10/06 20:59:40;;;;;;;32.42;23.57;;;;;;;12.36;100.00;99564.86;4220000;81;21112;-81
2021/10/06 21:05:40;;;;;;;33.95;24.45;;;;;;;12.35;100.00;99572.33;4209389;81;21054;-81
2021/10/06 21:11:41;;;;;;;31.52;23.75;;;;;;;12.40;100.00;99572.59;4212010;81;21568;-81
2021/10/06 21:17:43;;;;;;;35.48;23.90;;;;;;;12.32;100.00;99578.54;4318986;79;21033;-81
2021/10/06 21:23:46;;;;;;;34.90;24.47;;;;;;;12.23;100.00;99573.14;4325684;79;21047;-81
2021/10/06 21:29:49;;;;;;;34.55;23.55;;;;;;;12.29;100.00;99574.40;4314181;79;21009;-82
2021/10/06 21:35:50;;;;;;;33.48;24.07;;;;;;;12.40;100.00;99576.10;4312466;80;21575;-81
2021/10/06 21:41:51;;;;;;;37.90;26.35;;;;;;;12.46;100.00;99578.75;4343750;78;21070;-81
2021/10/06 21:47:53;;;;;;;40.73;27.20;;;;;;;12.38;100.00;99583.94;4422385;79;21074;-82
2021/10/06 21:53:54;;;;;;;44.13;28.52;;;;;;;12.35;100.00;99579.77;4417987;79;21008;-82
2021/10/06 21:59:55;;;;;;;41.20;28.80;;;;;;;12.35;100.00;99581.94;4420660;78;21061;-82
2021/10/06 22:05:56;;;;;;;45.25;31.27;;;;;;;12.41;100.00;99581.82;4412352;79;21035;-81
2021/10/06 22:11:59;;;;;;;49.18;30.80;;;;;;;12.37;100.00;99582.94;4421315;79;21067;-83
2021/10/06 22:18:00;;;;;;;46.80;31.62;;;;;;;12.33;100.00;99590.32;4428663;78;21027;-82
2021/10/06 22:24:02;;;;;;;39.20;25.90;;;;;;;12.33;100.00;99591.13;4420035;79;21024;-81
2021/10/06 22:30:06;;;;;;;37.80;25.90;;;;;;;12.30;100.00;99593.81;4415851;79;21964;-81
2021/10/06 22:36:07;;;;;;;36.60;26.35;;;;;;;12.39;100.00;99599.81;4415168;79;20972;-81
2021/10/06 22:42:09;;;;;;;40.00;24.15;;;;;;;12.37;100.00;99603.53;4424256;79;22202;-82
2021/10/06 22:48:10;;;;;;;36.13;24.35;;;;;;;12.37;100.00;99604.91;4419391;79;20990;-82
